Time;durP1;ratioP1;P1;durP2;ratioP2;P2;SDS_P1;SDS_P2;PMS_P1;PMS_P2;Temp;Humidity;BMP_temperature;BMP_pressure;BME280_temperature;BME280_humidity;BME280_pressure;Samples;Min_cycle;Max_cycle;Signal;HPM_P1;HPM_P2
2022/08/18 00:02:19;;;;;;;21.17;18.45;;;;;;;19.27;91.45;98538.81;2173340;81;20976;-84
2022/08/18 00:05:20;;;;;;;20.08;18.17;;;;;;;19.25;91.40;98550.76;2173458;81;21000;-83
2022/08/18 00:08:19;;;;;;;19.15;17.15;;;;;;;19.26;91.69;98552.95;2175433;80;21035;-83
2022/08/18 00:11:20;;;;;;;21.02;17.35;;;;;;;19.22;91.25;98552.62;2190280;81;20985;-83
2022/08/18 00:14:20;;;;;;;20.43;18.10;;;;;;;19.14;91.51;98554.61;2189654;81;21382;-83
2022/08/18 00:17:21;;;;;;;21.12;18.90;;;;;;;19.14;92.03;98574.45;2189665;81;20956;-79
2022/08/18 00:20:21;;;;;;;23.38;19.70;;;;;;;19.15;92.83;98583.67;2189789;81;20920;-84
2022/08/18 00:23:22;;;;;;;56.58;21.27;;;;;;;19.20;92.90;98592.80;2189733;81;21280;-83
2022/08/18 00:26:22;;;;;;;20.48;18.32;;;;;;;19.21;92.33;98582.63;2189831;81;21011;-84
2022/08/18 00:29:22;;;;;;;20.23;18.23;;;;;;;19.09;91.70;98582.05;2188341;81;20964;-83
2022/08/18 00:32:23;;;;;;;82.02;24.85;;;;;;;18.99;91.89;98579.66;2189528;81;20972;-84
2022/08/18 00:35:26;;;;;;;27.60;19.00;;;;;;;18.95;92.49;98582.84;2188865;81;21011;-84
2022/08/18 00:38:26;;;;;;;22.02;19.15;;;;;;;18.94;92.30;98593.00;2188652;81;21436;-84
2022/08/18 00:41:27;;;;;;;21.42;18.50;;;;;;;18.94;92.48;98592.13;2188504;81;20970;-84
2022/08/18 00:44:27;;;;;;;20.68;18.15;;;;;;;18.89;92.49;98589.61;2190263;81;20948;-84
2022/08/18 00:47:28;;;;;;;22.05;18.05;;;;;;;18.82;92.46;98589.34;2190096;81;20905;-84
2022/08/18 00:50:28;;;;;;;21.12;19.00;;;;;;;18.77;92.21;98592.56;2190345;81;20937;-84
2022/08/18 00:53:28;;;;;;;20.55;18.62;;;;;;;18.65;92.14;98583.61;2190054;81;20996;-84
2022/08/18 00:56:30;;;;;;;20.05;18.07;;;;;;;18.59;92.56;98590.34;2190179;81;20937;-84
2022/08/18 00:59:30;;;;;;;20.95;18.80;;;;;;;18.56;92.85;98591.73;2190096;81;20945;-85
2022/08/18 01:02:30;;;;;;;20.72;18.52;;;;;;;18.53;92.85;98590.48;2189829;81;21300;-84
2022/08/18 01:05:32;;;;;;;20.52;18.60;;;;;;;18.47;93.00;98583.58;2190053;81;21347;-83
2022/08/18 01:08:30;;;;;;;21.37;18.85;;;;;;;18.42;92.93;98574.89;2187853;81;20976;-83
2022/08/18 01:11:31;;;;;;;19.75;17.62;;;;;;;18.38;93.32;98575.87;2173467;82;20949;-85
2022/08/18 01:14:31;;;;;;;16.55;13.93;;;;;;;18.37;91.53;98580.28;2173994;81;20948;-85
2022/08/18 01:24:10;;;;;;;16.87;15.25;;;;;;;19.77;78.01;98582.84;2173982;82;20941;-85
2022/08/18 01:27:09;;;;;;;16.20;12.53;;;;;;;20.09;77.08;98581.46;2174052;81;20948;-85
2022/08/18 01:30:10;;;;;;;17.12;15.40;;;;;;;20.32;75.57;98571.47;2173578;81;20933;-86
2022/08/18 01:33:11;;;;;;;18.02;14.73;;;;;;;20.57;74.80;98568.92;2173429;81;20917;-85
2022/08/18 01:36:15;;;;;;;17.15;15.55;;;;;;;20.69;74.80;98569.84;2173242;81;20972;-84
2022/08/18 01:39:14;;;;;;;19.20;15.10;;;;;;;20.61;77.80;98567.91;2173384;81;20995;-84
2022/08/18 01:42:15;;;;;;;22.35;16.93;;;;;;;20.15;79.05;98568.02;2172988;82;21325;-83
2022/08/18 01:45:15;;;;;;;16.62;14.90;;;;;;;19.85;80.70;98564.95;2173349;81;20929;-83
2022/08/18 01:48:15;;;;;;;26.55;15.32;;;;;;;19.59;81.43;98564.39;2173026;81;20928;-84
2022/08/18 01:51:16;;;;;;;154.07;27.58;;;;;;;19.31;82.47;98561.63;2172947;81;20901;-84
2022/08/18 01:54:16;;;;;;;18.65;16.50;;;;;;;19.07;83.92;98548.16;2173480;82;20921;-83
2022/08/18 01:57:16;;;;;;;19.67;15.95;;;;;;;18.89;84.62;98553.91;2173228;81;20987;-83
2022/08/18 02:00:17;;;;;;;49.77;19.95;;;;;;;18.70;85.13;98556.16;2173247;81;20925;-84
2022/08/18 02:03:17;;;;;;;19.37;17.48;;;;;;;18.66;86.67;98565.52;2173067;81;20969;-83
2022/08/18 02:06:18;;;;;;;23.07;18.37;;;;;;;18.62;86.98;98562.09;2173565;81;20969;-83
2022/08/18 02:09:18;;;;;;;123.82;26.17;;;;;;;18.53;86.82;98558.77;2173377;81;21020;-83
2022/08/18 02:12:19;;;;;;;85.95;24.45;;;;;;;18.39;87.23;98561.75;2173499;81;20937;-84
2022/08/18 02:15:19;;;;;;;28.38;18.37;;;;;;;18.34;88.26;98571.11;2173169;81;20941;-83
2022/08/18 02:18:19;;;;;;;19.48;17.57;;;;;;;18.31;88.30;98566.35;2173216;81;20980;-83
2022/08/18 02:21:20;;;;;;;18.52;16.65;;;;;;;18.22;88.22;98572.72;2173326;81;20944;-83
2022/08/18 02:24:20;;;;;;;18.30;16.50;;;;;;;18.08;88.34;98570.81;2173317;81;20944;-84
2022/08/18 02:27:20;;;;;;;20.25;16.73;;;;;;;18.02;88.64;98573.59;2173288;81;20920;-83
2022/08/18 02:30:21;;;;;;;37.00;19.25;;;;;;;18.01;89.17;98574.05;2173815;81;20952;-81
2022/08/18 02:33:21;;;;;;;22.15;17.67;;;;;;;17.98;89.59;98570.15;2173694;81;20964;-83
2022/08/18 02:36:22;;;;;;;21.12;17.05;;;;;;;17.93;89.55;98569.83;2173129;81;20949;-83
2022/08/18 02:39:22;;;;;;;20.57;16.75;;;;;;;17.83;89.54;98570.03;2173245;81;21027;-82
2022/08/18 02:42:22;;;;;;;19.02;16.97;;;;;;;17.75;89.80;98562.73;2173267;81;21387;-82
2022/08/18 02:45:23;;;;;;;20.92;18.07;;;;;;;17.71;90.17;98565.02;2173248;81;21008;-83
2022/08/18 02:48:46;;;;;;;18.20;15.95;;;;;;;17.68;90.19;98558.94;2173477;81;20941;-82
2022/08/18 02:51:24;;;;;;;18.35;16.70;;;;;;;17.63;90.41;98556.36;2173220;81;21337;-82
2022/08/18 02:54:24;;;;;;;20.15;17.95;;;;;;;17.60;90.50;98560.83;2173135;81;20902;-81
2022/08/18 02:57:24;;;;;;;24.65;18.82;;;;;;;17.53;91.22;98553.49;2173435;81;20901;-82
2022/08/18 03:00:25;;;;;;;20.32;17.35;;;;;;;17.54;91.50;98551.72;2173308;81;20984;-82
2022/08/18 03:03:25;;;;;;;19.30;17.27;;;;;;;17.54;91.32;98544.67;2173065;81;21305;-82
2022/08/18 03:06:26;;;;;;;19.20;17.32;;;;;;;17.45;90.76;98542.23;2172834;81;20996;-82
2022/08/18 03:09:26;;;;;;;30.15;17.35;;;;;;;17.39;91.02;98547.63;2173205;81;20981;-77
2022/08/18 03:12:26;;;;;;;36.17;18.30;;;;;;;17.36;91.35;98560.44;2173128;81;20992;-82
2022/08/18 03:15:27;;;;;;;29.45;18.37;;;;;;;17.41;92.51;98562.98;2173046;81;21031;-82
2022/08/18 03:18:27;;;;;;;17.70;16.07;;;;;;;17.41;92.39;98555.94;2173061;81;20957;-82
2022/08/18 03:21:28;;;;;;;16.87;15.35;;;;;;;17.38;91.38;98561.72;2173298;81;20993;-82
2022/08/18 03:24:28;;;;;;;36.00;16.12;;;;;;;17.28;91.37;98565.41;2173075;82;21301;-82
2022/08/18 03:27:28;;;;;;;17.37;15.78;;;;;;;17.26;91.62;98568.08;2173436;82;20933;-82
2022/08/18 03:30:29;;;;;;;74.72;19.73;;;;;;;17.30;91.93;98568.88;2173490;82;20910;-83
2022/08/18 03:33:29;;;;;;;18.82;16.82;;;;;;;17.30;91.87;98571.52;2173143;81;20917;-82
2022/08/18 03:36:30;;;;;;;17.70;15.88;;;;;;;17.24;91.26;98567.69;2173419;81;20981;-81
2022/08/18 03:39:30;;;;;;;25.60;16.60;;;;;;;17.17;91.43;98574.39;2172184;81;20965;-81
2022/08/18 03:42:30;;;;;;;20.55;16.80;;;;;;;17.15;92.05;98580.15;2172972;81;21348;-82
2022/08/18 03:45:31;;;;;;;20.05;16.95;;;;;;;17.21;92.77;98587.08;2170120;81;21020;-83
2022/08/18 03:48:32;;;;;;;22.02;17.52;;;;;;;17.22;92.35;98586.18;2171388;81;20991;-83
2022/08/18 03:51:32;;;;;;;18.40;16.40;;;;;;;17.21;92.13;98587.08;2171362;81;21495;-83
2022/08/18 03:54:32;;;;;;;20.60;16.60;;;;;;;17.18;92.17;98585.81;2172207;81;20996;-83
2022/08/18 03:57:32;;;;;;;19.98;16.90;;;;;;;17.20;92.18;98594.56;2171694;81;20956;-83
2022/08/18 04:00:33;;;;;;;18.37;16.75;;;;;;;17.22;92.17;98592.77;2171995;81;20952;-84
2022/08/18 04:03:34;;;;;;;19.95;17.02;;;;;;;17.23;91.88;98597.59;2171925;81;21447;-84
2022/08/18 04:06:34;;;;;;;17.77;16.02;;;;;;;17.27;92.03;98594.00;2173620;81;21008;-85
2022/08/18 04:09:34;;;;;;;17.57;15.88;;;;;;;17.32;92.32;98598.30;2173798;81;21064;-84
2022/08/18 04:12:36;;;;;;;17.98;16.02;;;;;;;17.38;92.47;98597.34;2173622;81;20940;-84
2022/08/18 04:15:35;;;;;;;20.68;16.30;;;;;;;17.43;92.39;98598.12;2173443;81;20972;-83
2022/08/18 04:18:35;;;;;;;18.75;16.23;;;;;;;17.49;92.42;98597.55;2173125;81;21016;-83
2022/08/18 04:21:36;;;;;;;16.17;14.78;;;;;;;17.56;92.46;98602.25;2173252;81;21012;-82
2022/08/18 04:24:36;;;;;;;19.67;17.62;;;;;;;17.63;92.20;98607.83;2172909;81;21336;-81
2022/08/18 04:27:41;;;;;;;19.62;15.95;;;;;;;17.72;92.37;98607.67;2171990;81;21059;-82
2022/08/18 04:30:37;;;;;;;17.50;15.90;;;;;;;17.83;92.42;98610.09;2171951;81;21008;-82
2022/08/18 04:33:37;;;;;;;132.00;27.90;;;;;;;17.87;92.17;98609.58;2172396;81;21023;-83
2022/08/18 04:36:38;;;;;;;19.42;16.02;;;;;;;17.98;92.33;98620.78;2172042;81;20964;-79
2022/08/18 04:39:38;;;;;;;22.27;16.50;;;;;;;18.11;92.16;98624.89;2170964;82;21087;-82
2022/08/18 04:42:38;;;;;;;20.17;16.07;;;;;;;18.23;92.04;98623.78;2170070;81;21662;-82
2022/08/18 04:45:39;;;;;;;22.27;16.45;;;;;;;18.38;92.02;98626.95;2170525;81;20957;-82
2022/08/18 04:48:39;;;;;;;20.68;16.02;;;;;;;18.56;91.76;98624.78;2170128;81;20988;-81
2022/08/18 04:51:40;;;;;;;22.75;16.23;;;;;;;18.71;91.53;98613.41;2170303;81;21001;-81
2022/08/18 04:54:40;;;;;;;21.93;17.65;;;;;;;18.92;91.47;98621.72;2169692;81;21437;-81
2022/08/18 04:57:41;;;;;;;25.75;18.50;;;;;;;19.16;91.64;98630.38;2170044;81;21011;-80
2022/08/18 05:00:42;;;;;;;22.10;16.65;;;;;;;19.40;91.86;98626.22;2170205;81;21360;-82
2022/08/18 05:03:41;;;;;;;20.57;16.07;;;;;;;19.59;91.54;98623.51;2170316;81;20961;-82
2022/08/18 05:06:42;;;;;;;537.85;46.88;;;;;;;19.72;90.54;98621.38;2170548;81;21052;-80
2022/08/18 05:09:42;;;;;;;25.35;16.97;;;;;;;19.89;91.08;98624.41;2173949;81;21402;-80
2022/08/18 05:12:42;;;;;;;18.87;17.05;;;;;;;20.11;90.73;98619.38;2186219;81;20956;-79
2022/08/18 05:15:43;;;;;;;26.12;18.52;;;;;;;20.31;90.81;98614.34;2186571;81;20991;-80
2022/08/18 05:18:43;;;;;;;21.27;18.25;;;;;;;20.51;90.13;98618.17;2187039;81;21023;-80
2022/08/18 05:21:44;;;;;;;21.50;19.35;;;;;;;20.70;90.31;98610.04;2187308;81;21009;-80
2022/08/18 05:24:44;;;;;;;24.10;19.05;;;;;;;20.91;89.94;98615.13;2187234;81;20960;-79
2022/08/18 05:27:44;;;;;;;22.02;18.80;;;;;;;21.13;89.71;98620.58;2187933;81;20955;-79
2022/08/18 05:30:45;;;;;;;23.27;18.70;;;;;;;21.36;89.23;98624.66;2187640;81;21551;-79
2022/08/18 05:33:45;;;;;;;21.20;18.55;;;;;;;21.56;88.54;98618.17;2186119;81;21024;-80
2022/08/18 05:36:46;;;;;;;20.27;17.85;;;;;;;21.77;87.80;98621.01;2186460;81;20996;-81
2022/08/18 05:39:46;;;;;;;92.90;24.52;;;;;;;21.99;87.73;98611.31;2187099;81;21383;-79
2022/08/18 05:42:47;;;;;;;24.63;18.67;;;;;;;22.21;86.93;98613.58;2187212;81;21011;-79
2022/08/18 05:45:47;;;;;;;36.77;19.02;;;;;;;22.38;86.23;98612.92;2185325;81;21132;-80
2022/08/18 05:48:47;;;;;;;36.35;19.48;;;;;;;22.61;85.83;98613.36;2184881;81;20971;-78
2022/08/18 05:51:48;;;;;;;21.35;17.27;;;;;;;22.87;84.67;98613.66;2185681;81;20992;-78
2022/08/18 05:58:07;;;;;;;22.70;16.82;;;;;;;23.28;83.78;98614.57;2187560;81;21096;-78
2022/08/18 06:01:08;;;;;;;26.25;19.45;;;;;;;23.49;82.89;98616.33;2187530;81;21007;-80
2022/08/18 06:04:08;;;;;;;20.37;16.10;;;;;;;23.71;82.00;98625.60;2188550;81;20944;-79
2022/08/18 06:07:09;;;;;;;29.75;17.40;;;;;;;23.85;80.61;98624.98;2185954;81;21470;-79
2022/08/18 06:10:09;;;;;;;23.20;17.05;;;;;;;23.87;80.25;98629.77;2178824;81;21000;-76
2022/08/18 06:13:10;;;;;;;24.52;16.48;;;;;;;23.97;79.79;98629.75;2167635;81;20956;-80
2022/08/18 06:16:10;;;;;;;20.88;15.38;;;;;;;24.19;79.30;98630.09;2168011;81;21882;-80
2022/08/18 06:19:10;;;;;;;20.52;15.05;;;;;;;24.46;78.39;98626.19;2167812;81;20988;-80
2022/08/18 06:22:11;;;;;;;25.32;15.58;;;;;;;24.75;77.47;98625.64;2169449;81;20968;-80
2022/08/18 06:25:11;;;;;;;27.22;16.20;;;;;;;24.96;76.37;98622.84;2169578;81;20996;-80
2022/08/18 06:28:13;;;;;;;19.10;14.07;;;;;;;25.18;75.26;98623.56;2169367;81;20980;-80
2022/08/18 06:31:12;;;;;;;22.62;14.78;;;;;;;25.35;74.61;98628.05;2169335;81;20932;-80
2022/08/18 06:34:12;;;;;;;65.37;17.15;;;;;;;25.59;74.13;98623.23;2169921;81;20996;-82
2022/08/18 06:37:13;;;;;;;24.77;14.70;;;;;;;25.74;73.00;98622.45;2169853;82;21360;-80
2022/08/18 06:40:13;;;;;;;16.42;14.23;;;;;;;25.81;71.92;98625.66;2169118;81;21090;-79
2022/08/18 06:43:15;;;;;;;17.20;13.10;;;;;;;25.97;72.16;98631.44;2168102;81;20969;-78
2022/08/18 06:46:14;;;;;;;18.30;13.55;;;;;;;26.17;71.13;98622.84;2168392;82;21063;-78
2022/08/18 06:49:14;;;;;;;15.78;13.10;;;;;;;26.44;70.25;98625.83;2168079;81;20976;-79
2022/08/18 06:52:15;;;;;;;40.00;14.55;;;;;;;26.59;69.85;98627.64;2167397;81;20964;-78
2022/08/18 06:55:15;;;;;;;20.20;13.32;;;;;;;26.73;68.52;98632.21;2167133;82;21266;-79
2022/08/18 06:58:19;;;;;;;21.75;13.15;;;;;;;26.86;68.46;98636.77;2167650;81;21031;-79
2022/08/18 07:01:19;;;;;;;16.60;12.55;;;;;;;27.04;67.52;98634.91;2166393;82;20972;-79
2022/08/18 07:04:20;;;;;;;18.92;12.40;;;;;;;27.12;66.07;98640.68;2167534;81;21110;-79
2022/08/18 07:07:21;;;;;;;13.03;11.60;;;;;;;27.04;65.83;98640.74;2167653;82;21542;-80
2022/08/18 07:10:21;;;;;;;16.12;12.07;;;;;;;27.10;65.32;98639.05;2168163;81;21099;-79
2022/08/18 07:13:22;;;;;;;12.80;11.50;;;;;;;27.19;64.85;98644.73;2169907;81;20992;-81
2022/08/18 07:16:22;;;;;;;14.03;11.68;;;;;;;27.31;65.24;98647.64;2170399;81;20964;-80
2022/08/18 07:19:22;;;;;;;11.73;10.68;;;;;;;27.52;63.99;98653.92;2169989;81;20972;-80
2022/08/18 07:22:23;;;;;;;14.55;11.83;;;;;;;27.70;63.28;98647.95;2169501;81;20980;-80
2022/08/18 07:25:23;;;;;;;13.18;11.05;;;;;;;27.76;61.16;98647.61;2169703;81;21030;-80
2022/08/18 07:28:24;;;;;;;15.80;10.98;;;;;;;27.76;61.69;98655.66;2170029;81;20968;-80
2022/08/18 07:31:24;;;;;;;12.90;10.50;;;;;;;27.87;61.66;98645.13;2169620;81;21071;-79
2022/08/18 07:34:25;;;;;;;12.78;11.53;;;;;;;28.01;61.44;98646.09;2169527;82;20988;-79
2022/08/18 07:37:26;;;;;;;27.13;12.73;;;;;;;28.16;61.31;98643.80;2169221;81;20960;-81
2022/08/18 07:40:25;;;;;;;19.12;11.30;;;;;;;28.33;60.33;98645.45;2169241;81;21163;-80
2022/08/18 07:43:26;;;;;;;18.12;11.33;;;;;;;28.36;59.81;98646.59;2168688;81;21403;-80
2022/08/18 07:46:26;;;;;;;14.35;10.93;;;;;;;28.51;59.40;98642.45;2168940;82;21100;-80
2022/08/18 07:49:27;;;;;;;12.90;10.82;;;;;;;28.66;59.46;98652.70;2169381;81;20933;-80
2022/08/18 07:52:27;;;;;;;13.13;10.13;;;;;;;28.67;58.25;98646.38;2170346;81;20921;-80
2022/08/18 07:55:27;;;;;;;16.95;10.55;;;;;;;28.75;57.59;98652.59;2169834;81;20964;-80
2022/08/18 07:58:28;;;;;;;60.55;14.33;;;;;;;28.83;56.46;98650.27;2168375;82;20972;-80
2022/08/18 08:01:28;;;;;;;12.18;10.72;;;;;;;28.81;56.90;98648.16;2169158;81;21002;-79
2022/08/18 08:04:29;;;;;;;12.58;10.00;;;;;;;29.01;57.19;98653.11;2170176;81;21027;-79
2022/08/18 08:07:29;;;;;;;16.85;11.15;;;;;;;29.09;55.74;98656.16;2170152;81;20973;-80
2022/08/18 08:10:30;;;;;;;22.70;11.20;;;;;;;29.21;55.27;98647.75;2173437;81;21004;-80
2022/08/18 08:13:31;;;;;;;13.62;10.28;;;;;;;29.30;54.81;98646.27;2185004;81;21526;-79
2022/08/18 08:16:30;;;;;;;13.38;10.65;;;;;;;29.40;54.64;98646.89;2184350;81;20928;-79
2022/08/18 08:19:32;;;;;;;22.45;12.37;;;;;;;29.46;54.05;98637.58;2184761;81;21011;-80
2022/08/18 08:22:31;;;;;;;18.95;11.53;;;;;;;29.49;53.14;98641.43;2183614;81;21007;-80
2022/08/18 08:25:32;;;;;;;14.15;10.70;;;;;;;29.54;52.54;98637.08;2186354;81;21441;-80
2022/08/18 08:28:32;;;;;;;14.50;10.65;;;;;;;29.42;53.80;98634.69;2186407;81;20964;-80
2022/08/18 08:31:36;;;;;;;12.90;10.35;;;;;;;29.62;53.45;98635.59;2186303;81;20991;-80
2022/08/18 08:34:33;;;;;;;14.45;10.48;;;;;;;29.60;53.14;98632.14;2186244;81;20949;-81
2022/08/18 08:37:33;;;;;;;23.18;10.58;;;;;;;29.56;53.36;98642.73;2186158;81;21355;-80
2022/08/18 08:40:34;;;;;;;12.58;11.28;;;;;;;29.73;51.53;98642.91;2185969;81;21023;-81
2022/08/18 08:43:36;;;;;;;14.10;10.90;;;;;;;29.68;51.59;98642.37;2168587;81;20988;-80
2022/08/18 08:46:36;;;;;;;13.80;10.58;;;;;;;29.63;51.98;98635.96;2185806;81;21027;-80
2022/08/18 08:49:37;;;;;;;13.38;10.85;;;;;;;29.65;52.62;98630.48;2186280;81;20991;-81
2022/08/18 08:52:37;;;;;;;11.48;10.35;;;;;;;29.88;51.92;98636.45;2186201;81;21155;-82
2022/08/18 08:55:38;;;;;;;12.58;10.08;;;;;;;30.04;50.84;98628.20;2186645;81;20991;-81
2022/08/18 08:58:39;;;;;;;11.43;10.20;;;;;;;30.18;50.06;98629.91;2186854;81;20968;-80
2022/08/18 09:01:38;;;;;;;21.23;11.50;;;;;;;30.07;50.52;98636.05;2186670;81;21482;-80
2022/08/18 09:04:39;;;;;;;14.98;10.98;;;;;;;29.86;51.42;98638.39;2186811;81;20964;-80
2022/08/18 09:07:39;;;;;;;15.32;10.53;;;;;;;29.95;51.58;98637.75;2186667;81;21030;-81
2022/08/18 09:10:40;;;;;;;12.13;9.93;;;;;;;30.20;51.09;98632.86;2186564;81;21008;-80
2022/08/18 09:13:40;;;;;;;13.00;9.95;;;;;;;30.32;50.50;98627.94;2186767;81;21992;-79
2022/08/18 09:16:41;;;;;;;11.90;10.20;;;;;;;30.41;50.15;98634.52;2186687;81;21007;-80
2022/08/18 09:19:41;;;;;;;10.18;8.90;;;;;;;30.50;49.86;98627.61;2186571;81;20988;-80
2022/08/18 09:22:41;;;;;;;15.48;10.50;;;;;;;30.59;48.55;98635.91;2186730;81;21014;-80
2022/08/18 09:25:42;;;;;;;12.88;9.68;;;;;;;31.10;47.96;98644.28;2186927;81;21079;-79
2022/08/18 09:28:42;;;;;;;13.05;8.93;;;;;;;31.10;47.96;98644.28;2186130;81;20965;-80
2022/08/18 09:31:42;;;;;;;14.43;9.60;;;;;;;31.21;46.37;98648.41;2185791;81;20955;-79
2022/08/18 09:34:43;;;;;;;12.60;9.58;;;;;;;31.31;46.63;98648.97;2184653;81;21376;-79
2022/08/18 09:37:43;;;;;;;12.30;9.75;;;;;;;31.32;46.80;98648.48;2185062;81;21301;-79
2022/08/18 09:44:09;;;;;;;15.65;9.38;;;;;;;31.25;47.19;98648.58;2184176;81;21015;-79
2022/08/18 09:47:09;;;;;;;14.20;9.05;;;;;;;31.52;46.79;98645.61;2183746;81;21027;-79
2022/08/18 09:50:09;;;;;;;10.03;9.03;;;;;;;31.91;45.85;98644.38;2184213;81;21437;-79
2022/08/18 09:53:10;;;;;;;30.10;10.05;;;;;;;32.25;44.40;98656.99;2184732;81;21295;-79
2022/08/18 09:56:10;;;;;;;13.93;8.70;;;;;;;32.38;43.99;98655.52;2185807;81;20938;-80
2022/08/18 09:59:11;;;;;;;13.78;9.35;;;;;;;32.46;43.34;98653.55;2185580;81;20932;-80
2022/08/18 10:02:11;;;;;;;8.55;7.55;;;;;;;32.45;42.99;98650.48;2186055;81;21024;-80
2022/08/18 10:05:11;;;;;;;9.68;7.17;;;;;;;32.66;42.86;98651.93;2185738;81;21027;-79
2022/08/18 10:08:13;;;;;;;14.55;7.95;;;;;;;32.85;40.46;98637.30;2186473;81;21036;-79
2022/08/18 10:11:12;;;;;;;9.93;7.67;;;;;;;32.90;41.69;98652.65;2185945;81;21024;-79
2022/08/18 10:14:13;;;;;;;14.65;8.90;;;;;;;32.93;41.47;98638.88;2185700;81;20988;-78
2022/08/18 10:17:13;;;;;;;23.07;10.30;;;;;;;33.15;41.06;98639.33;2185233;81;21003;-83
2022/08/18 10:20:13;;;;;;;51.23;10.13;;;;;;;33.05;41.26;98637.03;2187180;81;20960;-84
2022/08/18 10:23:14;;;;;;;13.48;8.45;;;;;;;33.15;40.36;98642.03;2187044;81;20979;-84
2022/08/18 10:26:14;;;;;;;19.07;9.65;;;;;;;33.15;40.26;98642.89;2187287;81;21497;-83
2022/08/18 10:29:15;;;;;;;20.37;9.25;;;;;;;33.08;40.64;98647.59;2187338;81;20984;-85
2022/08/18 10:32:15;;;;;;;32.65;9.73;;;;;;;33.25;41.03;98655.15;2187818;81;20963;-86
2022/08/18 10:35:15;;;;;;;29.12;10.43;;;;;;;33.14;40.15;98656.55;2189091;81;20975;-84
2022/08/18 10:38:16;;;;;;;19.98;9.20;;;;;;;32.76;40.86;98660.51;2188701;81;21361;-85
2022/08/18 10:41:17;;;;;;;12.13;8.83;;;;;;;32.52;41.41;98652.56;2188712;81;20991;-83
2022/08/18 10:44:17;;;;;;;12.07;8.53;;;;;;;32.50;41.50;98646.42;2187179;81;20999;-79
2022/08/18 10:47:17;;;;;;;30.77;9.63;;;;;;;32.76;41.28;98648.84;2186523;81;20980;-79
2022/08/18 10:50:18;;;;;;;10.60;8.38;;;;;;;32.87;40.73;98645.65;2186661;81;20897;-81
2022/08/18 10:53:18;;;;;;;10.05;8.65;;;;;;;32.88;40.27;98640.61;2186765;81;20956;-80
2022/08/18 10:56:18;;;;;;;12.30;8.10;;;;;;;32.88;40.07;98626.23;2186623;81;21055;-79
2022/08/18 10:59:19;;;;;;;16.00;8.58;;;;;;;32.87;40.34;98627.22;2184179;81;21485;-80
2022/08/18 11:02:19;;;;;;;9.68;8.78;;;;;;;32.88;40.22;98625.74;2186788;81;20980;-79
2022/08/18 11:05:20;;;;;;;13.22;9.33;;;;;;;32.86;40.37;98625.02;2186137;81;21279;-80
2022/08/18 11:08:20;;;;;;;11.63;8.13;;;;;;;32.80;40.37;98621.47;2186348;81;20971;-79
2022/08/18 11:11:21;;;;;;;13.50;9.55;;;;;;;32.89;40.35;98612.59;2180884;81;21115;-79
2022/08/18 11:14:22;;;;;;;16.87;9.40;;;;;;;32.75;39.87;98614.20;2169094;81;21043;-81
2022/08/18 11:17:21;;;;;;;22.05;10.28;;;;;;;32.53;40.06;98616.95;2170332;81;21419;-82
2022/08/18 11:20:22;;;;;;;28.98;9.80;;;;;;;32.44;40.08;98611.80;2170188;82;21012;-81
2022/08/18 11:23:22;;;;;;;24.07;9.25;;;;;;;32.43;39.73;98607.38;2170916;81;20988;-82
2022/08/18 11:26:23;;;;;;;15.38;8.88;;;;;;;32.55;40.40;98609.08;2170992;81;20992;-82
2022/08/18 11:29:23;;;;;;;15.30;8.58;;;;;;;32.63;40.51;98595.80;2171585;81;20964;-82
2022/08/18 11:32:23;;;;;;;14.38;8.20;;;;;;;32.63;39.53;98586.34;2170956;81;21406;-81
2022/08/18 11:35:24;;;;;;;13.05;9.28;;;;;;;32.73;39.26;98589.14;2170597;81;21016;-82
2022/08/18 11:38:26;;;;;;;10.88;8.50;;;;;;;32.78;39.53;98587.44;2170815;81;20961;-83
2022/08/18 11:41:25;;;;;;;10.45;8.38;;;;;;;32.81;39.38;98586.70;2170564;82;21750;-81
2022/08/18 11:44:27;;;;;;;20.85;8.90;;;;;;;32.71;39.47;98576.25;2170344;81;20940;-81
2022/08/18 11:47:25;;;;;;;14.53;9.23;;;;;;;32.79;37.78;98584.61;2170265;81;22140;-82
2022/08/18 11:50:26;;;;;;;20.15;8.68;;;;;;;32.53;39.34;98579.98;2170320;81;21442;-82
2022/08/18 11:53:26;;;;;;;19.12;9.05;;;;;;;32.59;39.18;98584.02;2170540;81;20980;-82
2022/08/18 11:56:27;;;;;;;13.08;8.48;;;;;;;32.52;37.79;98571.51;2170762;81;21005;-82
2022/08/18 11:59:27;;;;;;;19.50;8.50;;;;;;;32.30;37.60;98572.41;2170949;81;20964;-80
2022/08/18 12:02:27;;;;;;;11.73;8.48;;;;;;;32.04;37.22;98561.45;2171070;81;21388;-82
2022/08/18 12:05:28;;;;;;;9.65;8.63;;;;;;;32.05;38.28;98562.30;2170843;81;21024;-81
2022/08/18 12:08:28;;;;;;;12.53;8.75;;;;;;;32.22;38.67;98561.83;2170420;81;20963;-81
2022/08/18 12:11:29;;;;;;;26.73;9.73;;;;;;;31.74;38.00;98549.91;2172931;81;21082;-80
2022/08/18 12:14:30;;;;;;;113.10;17.07;;;;;;;31.55;39.13;98554.52;2187095;81;21689;-83
2022/08/18 12:17:30;;;;;;;35.80;11.15;;;;;;;31.59;39.84;98550.59;2186582;81;20924;-82
2022/08/18 12:20:30;;;;;;;59.58;13.45;;;;;;;31.68;39.90;98548.52;2186247;81;20956;-81
2022/08/18 12:23:30;;;;;;;23.22;9.20;;;;;;;31.79;40.21;98537.40;2185569;81;20963;-83
2022/08/18 12:26:32;;;;;;;8.70;7.90;;;;;;;31.99;39.82;98536.66;2185478;81;20988;-82
2022/08/18 12:29:31;;;;;;;138.50;16.87;;;;;;;31.96;39.48;98531.51;2185439;81;20995;-82
2022/08/18 12:32:32;;;;;;;12.45;7.58;;;;;;;31.89;39.03;98529.80;2185850;81;21072;-83
2022/08/18 12:35:32;;;;;;;9.10;8.20;;;;;;;31.98;39.06;98522.80;2185827;81;21358;-82
2022/08/18 12:38:32;;;;;;;8.78;7.50;;;;;;;31.73;39.60;98513.61;2186767;81;20976;-81
2022/08/18 12:41:33;;;;;;;14.38;7.78;;;;;;;31.65;39.57;98519.58;2187228;81;20940;-83
2022/08/18 12:44:33;;;;;;;14.78;7.90;;;;;;;31.49;39.91;98521.77;2186759;81;20991;-81
2022/08/18 12:47:34;;;;;;;10.48;7.30;;;;;;;31.41;39.96;98521.02;2186441;81;21018;-79
2022/08/18 12:50:34;;;;;;;112.55;16.70;;;;;;;31.69;40.07;98515.66;2186110;81;21003;-80
2022/08/18 12:53:35;;;;;;;17.27;7.72;;;;;;;31.86;39.78;98506.23;2186321;81;21007;-82
2022/08/18 12:56:35;;;;;;;17.12;7.30;;;;;;;32.10;39.10;98486.73;2186642;81;22099;-82
2022/08/18 12:59:35;;;;;;;15.55;8.35;;;;;;;32.35;38.54;98492.84;2186687;81;20996;-82
2022/08/18 13:02:36;;;;;;;11.65;7.60;;;;;;;32.40;38.79;98491.48;2186869;81;21010;-83
2022/08/18 13:05:36;;;;;;;12.45;7.92;;;;;;;32.51;38.87;98487.39;2187414;81;21900;-83
2022/08/18 13:08:37;;;;;;;18.32;8.63;;;;;;;32.35;38.41;98487.45;2187644;81;21391;-83
2022/08/18 13:11:37;;;;;;;32.63;8.75;;;;;;;32.41;39.11;98482.88;2186313;81;21035;-81
2022/08/18 13:14:37;;;;;;;15.05;7.87;;;;;;;32.61;39.09;98482.08;2186414;81;20960;-82
2022/08/18 13:17:38;;;;;;;11.55;7.67;;;;;;;32.65;38.12;98489.43;2186539;81;21032;-81
2022/08/18 13:20:38;;;;;;;11.00;7.08;;;;;;;32.29;37.74;98488.32;2186823;81;20932;-83
2022/08/18 13:23:39;;;;;;;14.95;8.15;;;;;;;32.23;37.77;98497.39;2186226;81;21371;-85
2022/08/18 13:26:40;;;;;;;8.50;7.10;;;;;;;32.06;36.52;98485.73;2187661;81;21034;-83
2022/08/18 13:29:40;;;;;;;10.38;7.25;;;;;;;31.99;38.19;98482.67;2188206;81;20964;-83
2022/08/18 13:32:40;;;;;;;13.10;7.70;;;;;;;32.32;38.44;98489.91;2187229;81;20996;-81
2022/08/18 13:35:40;;;;;;;9.55;6.92;;;;;;;32.61;37.90;98486.98;2187292;81;21014;-81
2022/08/18 13:38:42;;;;;;;11.60;7.50;;;;;;;32.79;37.62;98488.66;2187027;81;21433;-83
2022/08/18 13:41:42;;;;;;;10.68;7.70;;;;;;;32.91;37.16;98486.27;2186533;81;20956;-82
2022/08/18 13:44:41;;;;;;;13.53;7.62;;;;;;;32.99;37.31;98492.90;2187241;81;20990;-81
2022/08/18 13:47:43;;;;;;;14.90;7.33;;;;;;;33.10;37.67;98490.13;2188395;81;20987;-82
2022/08/18 13:50:42;;;;;;;14.95;7.75;;;;;;;33.35;36.81;98505.13;2189375;81;20973;-81
2022/08/18 13:53:43;;;;;;;8.83;6.60;;;;;;;33.22;36.48;98500.75;2189716;81;20916;-82
2022/08/18 13:56:45;;;;;;;10.60;7.28;;;;;;;33.11;37.03;98509.42;2187402;81;20988;-81
2022/08/18 13:59:44;;;;;;;7.65;6.85;;;;;;;33.08;37.11;98501.08;2187553;81;20955;-82
2022/08/18 14:02:44;;;;;;;11.85;6.72;;;;;;;33.03;36.87;98510.58;2187485;81;20992;-81
2022/08/18 14:05:44;;;;;;;10.72;7.35;;;;;;;32.93;37.17;98504.56;2187386;81;21007;-82